»·PEaware :: XOJ557 KRIF-KYKM

XOJ557 :: KRIF-KYKM

FLIGHT INFORMATION

Flight Status: Arrived
Operator:
XOJET
More flights by this operator :: More flights under this callsign
Pilot: Alex K. (14822)
Aircraft: BOMBARDIER BD-100 CHALLENGER 300
(CL30)
More flights by this aircraft type
Origin: KRIF Richfield Mun
United States
Destination: KYKM Yakima Air Term/Mcallister
United States
More flights between these airports :: More routes between these airports
Route: +DTA PDT J20 YKM
File this flight plan on PilotEdge
Remarks:
Altitude:
(Current/Filed)
39,000ft
Speed:
(Current/Filed)
435kts
Departed: 16-Oct-18 02:07 PM
Arrived: 16-Oct-18 03:42 PM
Distance/Time
Traveled:
599nm/1:35
Distance/Time
To Go:
Arrived

Flight Plot

Page will automatically refresh every two minutes.

Flight plan parsing failed; only flown route is shown


Map Options




Map Legend


Flown Route
Filed Route
Departure Airport
Arrival Airport
Navaid (VOR, NDB)
Fix

Horizontal Profiles

Position Reports

Time Latitude Longitude Heading Altitude Ground
Speed
16-Oct-18 14:06 38.728406 -112.103726 25 5308ft 0kts
16-Oct-18 14:07 38.728406 -112.103726 25 5308ft 0kts
16-Oct-18 14:08 38.728406 -112.103726 25 5308ft 0kts
16-Oct-18 14:09 38.734125 -112.100330 24 5291ft 113kts
16-Oct-18 14:10 38.779721 -112.094567 33 7660ft 206kts
16-Oct-18 14:11 38.819426 -112.027392 53 10818ft 273kts
16-Oct-18 14:12 38.889966 -112.029102 306 13885ft 344kts
16-Oct-18 14:13 38.953239 -112.126641 317 17178ft 370kts
16-Oct-18 14:14 39.031425 -112.217907 323 20108ft 391kts
16-Oct-18 14:15 39.106418 -112.298781 324 22430ft 406kts
16-Oct-18 14:16 39.164544 -112.360330 325 23991ft 417kts
16-Oct-18 14:17 39.254918 -112.455653 325 26087ft 431kts
16-Oct-18 14:18 39.351463 -112.549600 331 27940ft 441kts
16-Oct-18 14:19 39.453339 -112.639869 331 29593ft 453kts
16-Oct-18 14:20 39.556547 -112.731854 331 30990ft 463kts
16-Oct-18 14:21 39.663311 -112.827409 331 32264ft 473kts
16-Oct-18 14:22 39.766874 -112.920559 332 34701ft 449kts
16-Oct-18 14:23 39.868633 -113.012342 332 36223ft 446kts
16-Oct-18 14:24 39.969178 -113.103338 332 37533ft 448kts
16-Oct-18 14:25 40.072506 -113.197182 332 38006ft 467kts
16-Oct-18 14:26 40.180013 -113.295258 331 38006ft 489kts
16-Oct-18 14:27 40.290499 -113.396505 332 38002ft 483kts
16-Oct-18 14:28 40.399515 -113.496774 332 38006ft 478kts
16-Oct-18 14:29 40.507215 -113.596204 332 38013ft 473kts
16-Oct-18 14:30 40.613802 -113.695006 331 38006ft 471kts
16-Oct-18 14:31 40.720385 -113.794207 331 38005ft 471kts
16-Oct-18 14:32 40.826915 -113.893737 331 38005ft 471kts
16-Oct-18 14:33 40.933202 -113.993458 331 38004ft 471kts
16-Oct-18 14:34 41.039838 -114.093804 330 38008ft 470kts
16-Oct-18 14:35 41.144105 -114.192411 328 38011ft 470kts
16-Oct-18 14:36 41.248631 -114.291754 328 38011ft 469kts
16-Oct-18 14:37 41.349202 -114.387645 328 38011ft 468kts
16-Oct-18 14:38 41.444441 -114.478787 328 38012ft 468kts
16-Oct-18 14:39 41.535397 -114.566140 328 38026ft 467kts
16-Oct-18 14:40 41.628195 -114.655579 327 38038ft 466kts
16-Oct-18 14:41 41.720299 -114.744671 327 38034ft 465kts
16-Oct-18 14:42 41.813293 -114.834957 327 38034ft 464kts
16-Oct-18 14:43 41.905405 -114.924705 327 38034ft 463kts
16-Oct-18 14:44 41.997384 -115.014635 327 38035ft 462kts
16-Oct-18 14:45 42.090206 -115.105727 327 38036ft 462kts
16-Oct-18 14:46 42.166803 -115.181161 326 38037ft 462kts
16-Oct-18 14:47 42.250505 -115.263881 326 38039ft 463kts
16-Oct-18 14:48 42.343507 -115.356108 326 38043ft 463kts
16-Oct-18 14:49 42.437023 -115.449190 326 38047ft 463kts
16-Oct-18 14:50 42.530430 -115.542507 326 38048ft 464kts
16-Oct-18 14:51 42.623720 -115.636067 326 38048ft 464kts
16-Oct-18 14:52 42.714527 -115.727476 326 38044ft 464kts
16-Oct-18 14:53 42.807422 -115.821343 326 38044ft 464kts
16-Oct-18 14:54 42.900525 -115.915768 325 38046ft 464kts
16-Oct-18 14:55 42.993105 -116.009986 324 38046ft 464kts
16-Oct-18 14:56 43.087524 -116.106530 324 38045ft 463kts
16-Oct-18 14:57 43.185562 -116.207183 324 38045ft 462kts
16-Oct-18 14:58 43.281387 -116.305939 324 38043ft 461kts
16-Oct-18 14:59 43.377356 -116.405238 324 38037ft 460kts
16-Oct-18 15:00 43.473544 -116.505171 324 38041ft 459kts
16-Oct-18 15:01 43.570907 -116.606739 324 38052ft 459kts
16-Oct-18 15:02 43.666606 -116.706986 323 38054ft 459kts
16-Oct-18 15:03 43.761942 -116.807262 323 38059ft 458kts
16-Oct-18 15:04 43.859199 -116.909979 323 38072ft 458kts
16-Oct-18 15:05 43.956872 -117.013558 323 38073ft 459kts
16-Oct-18 15:06 44.054015 -117.117024 322 38074ft 459kts
16-Oct-18 15:07 44.150903 -117.220690 322 38072ft 459kts
16-Oct-18 15:08 44.245847 -117.322688 322 38073ft 459kts
16-Oct-18 15:09 44.341359 -117.425719 322 38051ft 460kts
16-Oct-18 15:10 44.436469 -117.528750 322 38039ft 460kts
16-Oct-18 15:11 44.526913 -117.627135 322 38037ft 460kts
16-Oct-18 15:12 44.615008 -117.723345 322 38036ft 460kts
16-Oct-18 15:13 44.706271 -117.823418 322 38036ft 461kts
16-Oct-18 15:14 44.803650 -117.930653 322 38036ft 461kts
16-Oct-18 15:15 44.898612 -118.035656 322 38037ft 461kts
16-Oct-18 15:16 44.993019 -118.140520 321 37353ft 455kts
16-Oct-18 15:17 45.086252 -118.244520 321 36395ft 446kts
16-Oct-18 15:18 45.177608 -118.346892 321 35006ft 442kts
16-Oct-18 15:19 45.267522 -118.448064 321 33081ft 454kts
16-Oct-18 15:20 45.359898 -118.552428 321 31547ft 449kts
16-Oct-18 15:21 45.448348 -118.652780 320 30130ft 441kts
16-Oct-18 15:22 45.533201 -118.749440 320 28798ft 433kts
16-Oct-18 15:23 45.617927 -118.846340 320 27521ft 426kts
16-Oct-18 15:24 45.698760 -118.944415 311 26180ft 421kts
16-Oct-18 15:25 45.771987 -119.063958 310 24783ft 416kts
16-Oct-18 15:26 45.842725 -119.182770 310 23506ft 407kts
16-Oct-18 15:27 45.911383 -119.299248 310 22215ft 399kts
16-Oct-18 15:28 45.975915 -119.409331 310 20956ft 391kts
16-Oct-18 15:29 46.040544 -119.520058 311 19643ft 383kts
16-Oct-18 15:30 46.103476 -119.628321 311 17972ft 373kts
16-Oct-18 15:31 46.165930 -119.736169 310 16217ft 362kts
16-Oct-18 15:32 46.216187 -119.823267 311 14703ft 353kts
16-Oct-18 15:33 46.270341 -119.917416 311 12939ft 343kts
16-Oct-18 15:34 46.323010 -120.009356 311 11102ft 330kts
16-Oct-18 15:35 46.373518 -120.097853 311 11003ft 287kts
16-Oct-18 15:36 46.419848 -120.179312 311 9836ft 284kts
16-Oct-18 15:37 46.485062 -120.190423 10 7311ft 266kts
16-Oct-18 15:38 46.529090 -120.237818 259 5024ft 235kts
16-Oct-18 15:39 46.516956 -120.320383 258 3978ft 218kts
16-Oct-18 15:40 46.529215 -120.386471 290 3173ft 170kts
16-Oct-18 15:41 46.544482 -120.447360 290 2292ft 149kts
16-Oct-18 15:42 46.557134 -120.498115 290 1583ft 138kts
16-Oct-18 15:43 46.568574 -120.543566 290 1074ft 87kts
16-Oct-18 15:44 46.570914 -120.549114 61 1074ft 0kts
16-Oct-18 15:45 46.571242 -120.547934 300 1074ft 2kts

Navigation Log

Ident Type
Flight plan parsing failed, navigation log unavailable